Time;durP1;ratioP1;P1;durP2;ratioP2;P2;SDS_P1;SDS_P2;PMS_P1;PMS_P2;Temp;Humidity;BMP_temperature;BMP_pressure;BME280_temperature;BME280_humidity;BME280_pressure;Samples;Min_cycle;Max_cycle;Signal;HPM_P1;HPM_P2
2021/09/26 00:01:40;;;;;;;;;12.50;12.25;;;;;19.76;54.39;100875.63;5002290;28;45543;-48
2021/09/26 00:04:05;;;;;;;;;14.75;14.75;;;;;19.76;54.41;100878.28;5002093;28;45270;-44
2021/09/26 00:06:31;;;;;;;;;18.00;15.00;;;;;19.77;54.55;100888.00;5002138;28;45412;-45
2021/09/26 00:08:56;;;;;;;;;15.75;13.75;;;;;19.71;54.49;100869.66;5002187;28;45333;-45
2021/09/26 00:11:22;;;;;;;;;15.75;14.75;;;;;19.76;54.15;100886.28;5002181;28;45575;-46
2021/09/26 00:13:47;;;;;;;;;16.50;13.75;;;;;19.75;54.19;100881.88;5001501;28;46293;-46
2021/09/26 00:16:13;;;;;;;;;16.25;16.25;;;;;19.74;54.48;100893.47;5001696;28;45294;-46
2021/09/26 00:18:39;;;;;;;;;15.25;12.75;;;;;19.72;54.21;100892.72;5002005;28;45348;-48
2021/09/26 00:21:05;;;;;;;;;16.50;14.50;;;;;19.74;54.58;100888.16;5000715;28;45416;-48
2021/09/26 00:23:32;;;;;;;;;18.50;17.25;;;;;19.74;54.04;100897.97;5004133;28;47108;-46
2021/09/26 00:25:59;;;;;;;;;13.50;13.50;;;;;19.71;54.27;100888.31;5011182;28;45233;-47
2021/09/26 00:28:24;;;;;;;;;13.00;12.50;;;;;19.72;54.54;100900.72;5001538;28;45436;-44
2021/09/26 00:30:50;;;;;;;;;14.50;14.00;;;;;19.71;54.82;100906.09;4990016;28;45403;-48
2021/09/26 00:33:16;;;;;;;;;15.50;14.50;;;;;19.70;54.60;100910.56;4998784;28;46182;-47
2021/09/26 00:35:42;;;;;;;;;15.50;14.50;;;;;19.70;54.33;100910.56;5000270;28;46110;-48
2021/09/26 00:38:08;;;;;;;;;18.75;15.50;;;;;19.72;54.17;100913.16;5001437;28;46228;-44
2021/09/26 00:40:34;;;;;;;;;17.75;16.00;;;;;19.71;54.47;100916.75;5001785;28;45271;-48
2021/09/26 00:42:59;;;;;;;;;15.25;14.75;;;;;19.71;54.11;100914.97;5001222;28;46101;-49
2021/09/26 00:45:25;;;;;;;;;20.00;17.50;;;;;19.70;54.54;100910.56;5001011;28;45336;-46
2021/09/26 00:47:50;;;;;;;;;16.50;15.00;;;;;19.70;54.62;100907.91;5001700;28;45209;-45
2021/09/26 00:50:17;;;;;;;;;17.50;14.50;;;;;19.69;54.40;100914.19;5001634;28;45237;-47
2021/09/26 00:52:46;;;;;;;;;20.50;20.00;;;;;19.65;54.59;100902.78;5001194;28;46103;-48
2021/09/26 00:55:13;;;;;;;;;15.25;13.75;;;;;19.69;54.16;100924.00;5001427;28;45487;-46
2021/09/26 00:57:41;;;;;;;;;16.25;15.75;;;;;19.69;54.60;100916.84;5001265;28;45357;-46
2021/09/26 01:00:08;;;;;;;;;18.25;15.75;;;;;19.69;54.21;100927.50;5001142;28;45712;-47
2021/09/26 01:02:33;;;;;;;;;17.00;12.50;;;;;19.70;54.42;100925.69;5000858;28;46280;-45
2021/09/26 01:04:59;;;;;;;;;13.50;13.50;;;;;19.70;54.38;100915.03;5001220;28;45266;-48
2021/09/26 01:07:30;;;;;;;;;14.00;13.00;;;;;19.71;54.43;100928.31;4999941;28;45349;-47
2021/09/26 01:10:19;;;;;;;;;17.75;15.25;;;;;19.47;54.67;100885.94;5001336;28;45396;-49
2021/09/26 01:13:03;;;;;;;;;16.25;14.75;;;;;19.72;53.89;100919.38;4969303;28;48139;-49
2021/09/26 01:15:55;;;;;;;;;16.50;16.50;;;;;19.73;54.15;100917.56;5000775;28;45383;-48
2021/09/26 01:18:41;;;;;;;;;13.00;13.00;;;;;19.72;54.58;100927.38;5001120;28;46148;-45
2021/09/26 01:21:16;;;;;;;;;14.00;14.00;;;;;19.71;54.34;100924.75;5001034;28;45199;-49
2021/09/26 01:24:00;;;;;;;;;11.25;10.75;;;;;19.74;54.17;100935.28;4999542;28;46437;-46
2021/09/26 01:27:08;;;;;;;;;14.50;12.25;;;;;19.73;54.09;100939.72;5000691;28;45297;-47
2021/09/26 01:29:39;;;;;;;;;13.50;11.25;;;;;19.73;54.18;100945.06;5004254;28;45461;-45
2021/09/26 01:32:08;;;;;;;;;16.25;14.50;;;;;19.72;54.05;100942.47;5000810;28;45331;-45
2021/09/26 01:34:40;;;;;;;;;17.50;13.00;;;;;19.72;54.03;100943.38;5000256;28;46302;-47
2021/09/26 01:37:26;;;;;;;;;11.50;11.50;;;;;19.73;54.44;100949.53;5000684;28;45456;-47
2021/09/26 01:40:10;;;;;;;;;12.00;12.00;;;;;19.71;54.41;100944.28;5000732;28;45640;-47
2021/09/26 01:42:40;;;;;;;;;13.50;13.50;;;;;19.70;54.37;100942.56;5000285;28;45281;-45
2021/09/26 01:45:20;;;;;;;;;15.75;13.50;;;;;19.70;54.32;100941.69;4995298;28;46309;-47
2021/09/26 01:48:07;;;;;;;;;14.25;14.25;;;;;19.69;54.33;100935.50;4995894;28;45425;-45
2021/09/26 01:50:35;;;;;;;;;14.25;13.25;;;;;19.69;54.40;100927.50;5000649;28;45326;-45
2021/09/26 01:53:01;;;;;;;;;11.75;10.50;;;;;19.69;54.01;100937.31;5000275;28;45634;-46
2021/09/26 01:55:28;;;;;;;;;15.25;14.50;;;;;19.68;54.13;100941.75;5000517;28;46667;-46
2021/09/26 01:57:56;;;;;;;;;12.25;12.25;;;;;19.68;54.03;100936.44;5000192;28;45313;-45
2021/09/26 02:00:21;;;;;;;;;14.00;13.25;;;;;19.68;54.04;100946.25;4988075;28;45294;-49
2021/09/26 02:02:48;;;;;;;;;12.00;11.25;;;;;19.67;54.22;100937.38;4999361;28;45317;-49
2021/09/26 02:05:15;;;;;;;;;17.00;15.00;;;;;19.66;54.15;100941.00;5000357;28;46079;-46
2021/09/26 02:07:44;;;;;;;;;10.75;10.00;;;;;19.64;54.43;100941.06;5000093;28;45341;-47
2021/09/26 02:10:12;;;;;;;;;14.00;13.25;;;;;19.57;53.97;100931.66;5000380;28;45242;-46
2021/09/26 02:12:38;;;;;;;;;11.25;11.25;;;;;19.63;54.43;100936.69;4985797;28;46169;-48
2021/09/26 02:15:06;;;;;;;;;17.00;16.50;;;;;19.62;54.14;100945.63;4999689;28;46148;-46
2021/09/26 02:17:32;;;;;;;;;14.50;13.50;;;;;19.60;54.40;100939.47;5000309;28;45382;-48
2021/09/26 02:20:01;;;;;;;;;11.25;11.25;;;;;19.62;54.07;100939.41;5000093;28;45346;-46
2021/09/26 02:22:29;;;;;;;;;7.75;7.75;;;;;19.60;54.32;100946.63;4992304;28;45398;-45
2021/09/26 02:24:55;;;;;;;;;13.50;13.00;;;;;19.59;54.38;100939.56;4993388;28;46647;-49
2021/09/26 02:27:20;;;;;;;;;14.75;13.75;;;;;19.57;53.98;100939.66;4988478;28;45413;-47
2021/09/26 02:29:46;;;;;;;;;13.00;13.00;;;;;19.56;54.03;100934.38;4998137;28;45368;-47
2021/09/26 02:32:11;;;;;;;;;14.50;14.25;;;;;19.56;54.18;100934.38;4988442;28;45378;-48
2021/09/26 02:34:37;;;;;;;;;11.50;11.00;;;;;19.53;54.23;100934.53;4997897;28;46136;-49
2021/09/26 02:37:02;;;;;;;;;15.75;14.25;;;;;19.51;54.52;100928.41;4988400;28;45444;-48
2021/09/26 02:39:28;;;;;;;;;13.50;13.50;;;;;19.51;54.50;100923.06;5000051;28;45304;-47
2021/09/26 02:41:53;;;;;;;;;13.25;13.25;;;;;19.49;54.23;100915.16;4999955;28;45265;-46
2021/09/26 02:44:35;;;;;;;;;12.25;11.25;;;;;19.48;54.47;100910.75;4999363;28;45266;-48
2021/09/26 02:47:11;;;;;;;;;13.00;12.50;;;;;19.46;54.76;100907.31;4989670;28;45337;-46
2021/09/26 02:49:37;;;;;;;;;15.50;11.75;;;;;19.46;54.43;100902.84;4999815;28;45430;-46
2021/09/26 02:52:06;;;;;;;;;16.75;14.00;;;;;19.46;54.38;100907.31;4999645;28;45398;-49
2021/09/26 02:54:36;;;;;;;;;12.50;12.50;;;;;19.47;54.29;100895.69;4997614;28;45254;-47
2021/09/26 02:57:01;;;;;;;;;12.75;12.75;;;;;19.47;54.59;100895.69;4995315;28;45432;-45
2021/09/26 02:59:27;;;;;;;;;12.50;12.50;;;;;19.46;54.31;100900.19;5002969;28;45368;-47
2021/09/26 03:01:54;;;;;;;;;10.75;10.25;;;;;19.46;54.09;100891.34;5003176;28;45337;-45
2021/09/26 03:04:20;;;;;;;;;14.00;14.00;;;;;19.47;54.31;100890.38;5002858;28;46170;-44
2021/09/26 03:06:46;;;;;;;;;17.50;15.00;;;;;19.46;54.72;100881.53;5002971;28;45191;-45
2021/09/26 03:09:11;;;;;;;;;14.25;13.25;;;;;19.45;54.65;100882.47;5002970;28;45366;-46
2021/09/26 03:11:37;;;;;;;;;15.50;14.25;;;;;19.46;54.50;100880.69;5003070;28;45218;-44
2021/09/26 03:14:03;;;;;;;;;13.75;13.00;;;;;19.46;54.28;100876.19;5002227;28;45859;-45
2021/09/26 03:16:28;;;;;;;;;16.00;14.00;;;;;19.45;54.36;100869.13;5002916;28;45400;-47
2021/09/26 03:18:53;;;;;;;;;17.00;16.00;;;;;19.46;54.71;100876.19;5002973;28;45476;-44
2021/09/26 03:21:19;;;;;;;;;19.50;14.50;;;;;19.45;54.88;100877.13;5002764;28;45635;-45
2021/09/26 03:23:44;;;;;;;;;16.75;15.25;;;;;19.45;54.44;100871.81;5002697;28;46116;-45
2021/09/26 03:26:09;;;;;;;;;17.50;15.50;;;;;19.45;54.25;100865.63;5002726;28;45267;-44
2021/09/26 03:28:35;;;;;;;;;16.25;15.75;;;;;19.44;54.37;100867.41;5017827;28;45312;-45
2021/09/26 03:31:00;;;;;;;;;14.25;14.25;;;;;19.44;54.44;100870.06;5002522;28;45567;-47
2021/09/26 03:33:26;;;;;;;;;14.50;13.75;;;;;19.43;54.11;100881.69;5002566;28;45396;-46
2021/09/26 03:35:51;;;;;;;;;21.25;17.75;;;;;19.42;54.38;100887.97;5002502;28;45349;-45
2021/09/26 03:38:16;;;;;;;;;17.50;17.00;;;;;19.43;54.42;100891.47;4998914;28;45495;-45
2021/09/26 03:40:42;;;;;;;;;17.25;16.00;;;;;19.41;54.76;100888.88;4993256;28;45392;-47
2021/09/26 03:43:07;;;;;;;;;21.50;19.50;;;;;19.41;54.78;100891.56;5002280;28;46994;-45
2021/09/26 03:45:33;;;;;;;;;18.25;15.75;;;;;19.41;54.68;100894.22;5002017;28;45316;-46
2021/09/26 03:47:58;;;;;;;;;19.00;17.00;;;;;19.39;54.63;100898.75;5002466;28;45428;-44
2021/09/26 03:50:24;;;;;;;;;16.25;15.00;;;;;19.38;54.68;100886.34;5002494;28;45218;-47
2021/09/26 03:52:49;;;;;;;;;13.00;12.75;;;;;19.38;54.57;100881.03;5001935;28;46242;-47
2021/09/26 03:55:15;;;;;;;;;14.25;12.50;;;;;19.39;54.99;100879.25;5002182;28;45436;-48
2021/09/26 03:57:41;;;;;;;;;14.50;13.75;;;;;19.39;55.10;100873.91;5034276;28;45341;-47
2021/09/26 04:00:10;;;;;;;;;16.25;16.25;;;;;19.37;55.09;100876.66;5021854;28;45449;-48
2021/09/26 04:02:35;;;;;;;;;16.75;15.25;;;;;19.40;55.01;100887.16;5021555;28;47323;-44
2021/09/26 04:05:01;;;;;;;;;14.50;13.25;;;;;19.40;55.10;100870.31;5020563;28;45312;-45
2021/09/26 04:07:27;;;;;;;;;18.50;18.25;;;;;19.41;54.65;100875.56;5004124;28;45341;-47
2021/09/26 04:09:52;;;;;;;;;13.75;13.25;;;;;19.39;54.81;100872.09;5022047;28;45470;-48
2021/09/26 04:12:18;;;;;;;;;21.00;19.25;;;;;19.41;55.13;100875.56;5021479;28;45412;-49
2021/09/26 04:14:43;;;;;;;;;13.25;13.25;;;;;19.43;54.91;100855.03;5021627;28;45290;-48
2021/09/26 04:17:08;;;;;;;;;15.75;15.75;;;;;19.44;54.68;100856.75;5021885;28;45209;-48
2021/09/26 04:19:34;;;;;;;;;18.25;18.25;;;;;19.44;55.00;100862.06;5021937;28;45289;-49
2021/09/26 04:22:00;;;;;;;;;20.00;18.50;;;;;19.45;54.87;100863.81;5020217;28;45992;-46
2021/09/26 04:24:25;;;;;;;;;17.50;17.25;;;;;19.45;55.28;100863.81;5021717;28;45339;-45
2021/09/26 04:26:50;;;;;;;;;19.50;18.50;;;;;19.46;54.98;100860.22;5021578;28;45151;-46
2021/09/26 04:29:16;;;;;;;;;22.75;22.25;;;;;19.46;54.64;100854.88;5021580;28;45360;-45
2021/09/26 04:31:41;;;;;;;;;17.25;17.25;;;;;19.47;54.95;100861.94;5021287;28;46109;-44
2021/09/26 04:34:07;;;;;;;;;15.25;14.50;;;;;19.46;55.31;100859.34;5021554;28;45406;-46
2021/09/26 04:36:32;;;;;;;;;17.75;16.75;;;;;19.47;55.23;100863.72;5018356;28;45195;-46
2021/09/26 04:38:58;;;;;;;;;24.25;21.50;;;;;19.46;55.29;100857.53;5001792;28;45217;-48
2021/09/26 04:41:23;;;;;;;;;27.25;25.75;;;;;19.46;55.11;100862.88;5001474;28;46292;-48
2021/09/26 04:43:49;;;;;;;;;25.50;20.75;;;;;19.43;54.84;100849.72;5001333;28;45297;-48
2021/09/26 04:46:14;;;;;;;;;26.25;23.00;;;;;19.42;54.86;100850.66;5001146;28;45745;-49
2021/09/26 04:48:40;;;;;;;;;29.50;26.50;;;;;19.42;55.38;100850.66;5001557;28;45342;-46
2021/09/26 04:51:05;;;;;;;;;31.75;26.25;;;;;19.38;55.25;100849.06;5001283;28;46116;-47
2021/09/26 04:53:30;;;;;;;;;25.75;25.25;;;;;19.37;55.45;100850.03;5001627;28;45259;-46
2021/09/26 04:55:56;;;;;;;;;26.25;21.25;;;;;19.37;55.38;100858.00;5001324;28;45375;-45
2021/09/26 04:58:21;;;;;;;;;28.25;26.75;;;;;19.34;55.44;100858.16;5001193;28;45488;-46
2021/09/26 05:00:46;;;;;;;;;25.50;21.75;;;;;19.33;55.28;100875.94;5000921;28;45528;-45
2021/09/26 05:03:13;;;;;;;;;28.50;25.75;;;;;19.29;55.54;100868.16;5001454;28;45308;-46
2021/09/26 05:05:39;;;;;;;;;21.75;21.75;;;;;19.28;55.58;100869.09;5001357;28;45298;-44
2021/09/26 05:08:04;;;;;;;;;27.75;26.75;;;;;19.25;55.55;100867.44;5001408;28;45258;-45
2021/09/26 05:10:31;;;;;;;;;21.75;18.00;;;;;19.25;55.30;100864.78;5001027;28;46203;-46
2021/09/26 05:12:57;;;;;;;;;21.00;18.25;;;;;19.23;55.11;100865.81;4999842;28;45383;-45
2021/09/26 05:15:22;;;;;;;;;22.25;19.00;;;;;19.23;55.69;100865.81;5000551;28;45263;-45
2021/09/26 05:17:47;;;;;;;;;20.00;19.75;;;;;19.22;55.62;100877.38;4999697;28;45282;-44
2021/09/26 05:20:13;;;;;;;;;21.00;16.25;;;;;19.20;55.31;100881.94;5000855;28;45255;-48
2021/09/26 05:22:38;;;;;;;;;20.50;19.50;;;;;19.11;55.47;100886.75;5001065;28;45773;-44
2021/09/26 05:25:04;;;;;;;;;21.00;19.75;;;;;19.14;55.58;100894.63;4987855;28;45250;-45
2021/09/26 05:27:30;;;;;;;;;20.25;18.50;;;;;19.10;55.53;100909.00;5000791;28;45332;-46
2021/09/26 05:29:55;;;;;;;;;21.25;17.50;;;;;19.09;55.73;100909.06;4999021;28;45868;-47
2021/09/26 05:32:21;;;;;;;;;20.75;17.50;;;;;19.06;55.65;100907.44;5000857;28;45545;-46
2021/09/26 05:34:46;;;;;;;;;17.50;17.50;;;;;19.06;55.90;100911.91;5000585;28;45405;-46
2021/09/26 05:37:12;;;;;;;;;18.00;16.25;;;;;19.04;56.02;100911.94;5000659;28;45323;-44
2021/09/26 05:39:38;;;;;;;;;14.50;12.75;;;;;19.03;55.35;100910.25;5000676;28;45408;-45
2021/09/26 05:42:06;;;;;;;;;24.50;18.50;;;;;18.99;56.36;100922.84;5000533;28;45774;-46
2021/09/26 05:44:32;;;;;;;;;19.25;17.25;;;;;18.95;55.92;100913.25;5000287;28;45352;-46
2021/09/26 05:46:58;;;;;;;;;18.50;16.75;;;;;18.93;56.42;100917.78;4989755;28;45417;-47
2021/09/26 05:49:23;;;;;;;;;17.25;16.25;;;;;18.93;56.28;100920.47;5000370;28;45590;-45
2021/09/26 05:51:49;;;;;;;;;20.50;18.25;;;;;18.92;56.35;100926.72;5000546;28;45269;-44
2021/09/26 05:54:14;;;;;;;;;15.00;14.25;;;;;18.91;56.57;100927.63;5000421;28;45323;-49
2021/09/26 05:56:40;;;;;;;;;20.00;17.00;;;;;18.88;56.55;100929.53;5000611;28;45263;-48
2021/09/26 05:59:05;;;;;;;;;18.25;16.25;;;;;18.90;56.56;100941.88;4999891;28;46119;-46
2021/09/26 06:01:30;;;;;;;;;19.25;18.00;;;;;18.91;56.63;100950.75;5000574;28;45345;-44
2021/09/26 06:03:58;;;;;;;;;20.00;18.00;;;;;18.91;56.73;100951.59;5000397;28;45641;-44
2021/09/26 06:06:24;;;;;;;;;19.50;18.50;;;;;18.92;56.84;100952.50;4991253;28;45167;-44
2021/09/26 06:08:49;;;;;;;;;18.75;17.50;;;;;18.90;57.02;100947.22;4996214;28;45532;-46
2021/09/26 06:11:15;;;;;;;;;21.00;19.25;;;;;18.90;57.09;100946.31;5000493;28;45223;-45
2021/09/26 06:13:41;;;;;;;;;20.25;16.50;;;;;18.90;57.25;100956.97;4999866;28;45560;-49
2021/09/26 06:16:06;;;;;;;;;18.75;15.25;;;;;18.89;57.40;100957.91;5000360;28;45275;-44
2021/09/26 06:18:32;;;;;;;;;21.25;18.00;;;;;18.87;57.50;100968.63;5000042;28;45296;-47
2021/09/26 06:20:57;;;;;;;;;18.00;15.50;;;;;18.85;57.21;100967.81;5000248;28;45383;-46
2021/09/26 06:23:23;;;;;;;;;23.50;17.50;;;;;18.83;57.62;100959.91;5000286;28;45251;-44
2021/09/26 06:25:48;;;;;;;;;17.50;16.25;;;;;18.84;57.92;100972.28;5000116;28;45182;-46
2021/09/26 06:28:15;;;;;;;;;20.00;18.50;;;;;18.84;57.69;100956.31;4998783;28;46957;-45
2021/09/26 06:30:40;;;;;;;;;17.50;16.75;;;;;18.79;57.89;100958.34;4999952;28;45339;-44
2021/09/26 06:33:06;;;;;;;;;23.00;20.00;;;;;18.82;57.47;100960.00;5015145;28;45323;-46
2021/09/26 06:35:32;;;;;;;;;23.25;18.75;;;;;18.82;57.84;100970.63;4999741;28;45492;-46
2021/09/26 06:37:58;;;;;;;;;24.25;22.25;;;;;18.82;57.75;100974.16;4999581;28;45447;-43
2021/09/26 06:40:24;;;;;;;;;22.50;18.50;;;;;18.82;58.35;100978.63;4999903;28;45210;-47
2021/09/26 06:42:50;;;;;;;;;21.25;19.75;;;;;18.84;58.10;100974.06;4999907;28;45222;-47
2021/09/26 06:45:16;;;;;;;;;18.75;17.75;;;;;18.86;58.29;100964.22;4999387;28;45419;-45
2021/09/26 06:47:41;;;;;;;;;25.50;22.75;;;;;18.87;58.62;100976.63;4999650;28;45199;-47
2021/09/26 06:50:08;;;;;;;;;18.00;15.25;;;;;18.84;58.77;100982.94;4999907;28;45218;-44
2021/09/26 06:52:34;;;;;;;;;22.25;19.75;;;;;18.83;59.12;100991.88;4999767;28;45352;-45
2021/09/26 06:54:59;;;;;;;;;21.75;21.75;;;;;18.86;58.87;101003.31;4998335;28;45747;-46
2021/09/26 06:57:25;;;;;;;;;21.00;18.75;;;;;18.87;58.68;100997.91;4998192;28;47089;-45
2021/09/26 06:59:50;;;;;;;;;20.50;20.25;;;;;18.89;59.04;100988.03;4999417;28;45421;-45
2021/09/26 07:02:21;;;;;;;;;23.25;20.50;;;;;18.91;58.94;100994.19;4999846;28;45439;-46
2021/09/26 07:04:47;;;;;;;;;20.00;17.50;;;;;18.92;58.71;100995.94;4999501;28;45229;-46
2021/09/26 07:07:12;;;;;;;;;22.50;19.25;;;;;18.96;58.95;100999.34;4999557;28;45285;-49
2021/09/26 07:09:39;;;;;;;;;20.50;19.00;;;;;18.96;58.71;101002.84;4999509;28;45178;-49
2021/09/26 07:12:05;;;;;;;;;19.75;19.75;;;;;18.97;58.88;101004.59;4999440;28;45360;-48
2021/09/26 07:14:30;;;;;;;;;20.75;19.00;;;;;19.02;59.32;101004.38;4998921;28;45345;-50
2021/09/26 07:16:55;;;;;;;;;19.25;18.25;;;;;19.04;59.08;100998.97;4999445;28;46083;-48
2021/09/26 07:19:21;;;;;;;;;21.75;19.75;;;;;19.03;58.91;101000.78;4999466;28;45391;-45
2021/09/26 07:21:47;;;;;;;;;25.25;21.00;;;;;19.06;59.05;101005.13;4999522;28;45414;-47
2021/09/26 07:24:12;;;;;;;;;26.75;21.50;;;;;19.07;58.94;101007.69;4999495;28;45382;-45
2021/09/26 07:26:38;;;;;;;;;22.50;20.50;;;;;19.12;58.69;101019.00;4999280;28;45346;-48
2021/09/26 07:29:03;;;;;;;;;24.50;20.00;;;;;19.12;59.06;101016.34;4998926;28;45318;-48
2021/09/26 07:31:29;;;;;;;;;22.00;16.75;;;;;19.19;58.92;101018.72;4999361;28;45225;-48
2021/09/26 07:33:54;;;;;;;;;25.75;17.25;;;;;19.19;58.57;101016.91;4999309;28;45179;-45
2021/09/26 07:36:19;;;;;;;;;20.25;16.75;;;;;19.24;58.57;101025.56;4997306;28;45748;-47
2021/09/26 07:38:45;;;;;;;;;21.75;21.25;;;;;19.27;58.46;101035.19;4993629;28;45227;-44
2021/09/26 07:41:10;;;;;;;;;21.50;18.50;;;;;19.29;58.58;101038.66;5002545;28;45269;-45
2021/09/26 07:43:36;;;;;;;;;22.75;20.75;;;;;19.30;59.08;101035.94;5002239;28;45421;-46
2021/09/26 07:46:02;;;;;;;;;20.50;18.00;;;;;19.32;59.07;101047.41;5002234;28;46312;-49
2021/09/26 07:48:27;;;;;;;;;24.00;21.50;;;;;19.37;58.91;101048.97;5002550;28;45266;-45
2021/09/26 07:50:52;;;;;;;;;21.25;19.50;;;;;19.40;58.77;101043.53;5002479;28;45244;-44
2021/09/26 07:53:19;;;;;;;;;22.50;19.00;;;;;19.42;59.11;101049.63;5002351;28;45172;-47
2021/09/26 07:55:45;;;;;;;;;20.75;20.75;;;;;19.42;58.46;101047.84;5002244;28;45697;-46
2021/09/26 07:58:10;;;;;;;;;20.25;19.50;;;;;19.45;58.48;101054.81;5002300;28;45426;-46
2021/09/26 08:00:36;;;;;;;;;22.25;20.25;;;;;19.45;58.83;101057.50;5000827;28;45352;-45
2021/09/26 08:03:02;;;;;;;;;16.50;15.50;;;;;19.46;58.87;101053.91;5002564;28;45266;-47
2021/09/26 08:05:27;;;;;;;;;17.75;17.00;;;;;19.47;58.87;101067.13;5002035;28;45441;-45
2021/09/26 08:07:53;;;;;;;;;18.00;16.25;;;;;19.49;59.07;101059.91;5002133;28;45422;-47
2021/09/26 08:10:18;;;;;;;;;17.25;16.50;;;;;19.52;59.01;101055.38;5002314;28;45354;-47
2021/09/26 08:12:44;;;;;;;;;16.25;15.75;;;;;19.54;58.76;101061.53;5000813;28;45420;-46
2021/09/26 08:15:10;;;;;;;;;19.00;16.50;;;;;19.58;58.50;101071.94;5001567;28;46120;-45
2021/09/26 08:17:36;;;;;;;;;17.75;15.00;;;;;19.60;58.81;101071.91;5002337;28;45455;-47
2021/09/26 08:20:02;;;;;;;;;22.00;17.25;;;;;19.62;58.96;101062.91;5000800;28;45813;-45
2021/09/26 08:22:27;;;;;;;;;17.50;15.50;;;;;19.65;59.10;101064.56;5002221;28;45242;-45
2021/09/26 08:24:53;;;;;;;;;21.75;15.75;;;;;19.69;58.94;101058.13;5001606;28;47156;-44
2021/09/26 08:27:18;;;;;;;;;17.75;16.75;;;;;19.73;58.45;101059.69;5002189;28;45765;-44
2021/09/26 08:29:45;;;;;;;;;16.75;15.00;;;;;19.76;58.84;101069.34;5001610;28;45333;-49
2021/09/26 08:32:11;;;;;;;;;19.25;18.50;;;;;19.79;58.78;101067.41;5001948;28;45322;-48
2021/09/26 08:34:36;;;;;;;;;19.50;17.00;;;;;19.85;58.83;101071.63;5001283;28;45840;-48
2021/09/26 08:37:02;;;;;;;;;16.50;15.00;;;;;19.89;58.37;101056.34;5001800;28;45242;-44
2021/09/26 08:39:27;;;;;;;;;17.25;16.00;;;;;19.93;58.34;101061.44;5001924;28;45323;-48
2021/09/26 08:41:54;;;;;;;;;14.25;14.25;;;;;20.00;58.75;101069.16;4995514;28;45248;-46
2021/09/26 08:44:28;;;;;;;;;14.50;13.00;;;;;20.06;58.90;101068.84;5019805;28;46307;-49
2021/09/26 08:46:55;;;;;;;;;16.75;13.75;;;;;20.12;58.19;101079.22;5021590;28;45348;-46
2021/09/26 08:49:22;;;;;;;;;17.25;16.00;;;;;20.16;58.41;101074.59;5021395;28;45241;-48
2021/09/26 08:51:49;;;;;;;;;14.50;14.50;;;;;20.22;58.31;101071.63;5020520;28;45221;-47
2021/09/26 08:54:15;;;;;;;;;18.25;15.75;;;;;20.29;58.09;101075.75;5021073;28;45328;-48
2021/09/26 08:56:41;;;;;;;;;10.50;10.50;;;;;20.31;58.11;101073.84;5021359;28;45383;-49
2021/09/26 08:59:08;;;;;;;;;19.25;17.75;;;;;20.37;58.27;101070.00;5020934;28;45337;-48
2021/09/26 09:01:34;;;;;;;;;13.25;13.25;;;;;20.42;58.55;101086.66;5021364;28;45182;-46
2021/09/26 09:03:59;;;;;;;;;19.25;15.25;;;;;20.43;58.11;101077.72;5020836;28;46206;-47
2021/09/26 09:06:38;;;;;;;;;15.25;10.25;;;;;20.46;58.52;101088.22;5021455;28;45270;-48
2021/09/26 09:09:20;;;;;;;;;14.75;14.00;;;;;20.45;58.39;101084.69;5021221;28;45296;-47
2021/09/26 09:12:08;;;;;;;;;16.50;15.75;;;;;20.50;58.75;101083.59;5020985;28;45408;-45
2021/09/26 09:14:52;;;;;;;;;21.00;14.75;;;;;20.52;58.50;101087.06;5020535;28;45500;-44
2021/09/26 09:17:30;;;;;;;;;13.50;13.50;;;;;20.53;58.28;101084.31;5020847;28;45289;-49
2021/09/26 09:20:34;;;;;;;;;18.00;18.00;;;;;20.56;57.87;101075.28;5019681;28;45286;-48
2021/09/26 09:23:17;;;;;;;;;15.00;14.00;;;;;20.57;57.91;101069.84;4998856;28;45525;-43
2021/09/26 09:25:52;;;;;;;;;12.75;10.25;;;;;20.60;58.44;101074.19;4998778;28;46208;-46
2021/09/26 09:28:39;;;;;;;;;16.25;15.75;;;;;20.63;58.02;101064.22;5012733;28;45302;-42
2021/09/26 09:31:06;;;;;;;;;15.00;15.00;;;;;20.70;58.06;101074.56;5020723;28;45403;-44
2021/09/26 09:33:43;;;;;;;;;15.50;15.50;;;;;20.75;57.90;101075.22;5020470;28;45459;-47
2021/09/26 09:36:26;;;;;;;;;18.00;17.50;;;;;20.83;57.84;101082.84;5020355;28;45311;-44
2021/09/26 09:38:56;;;;;;;;;15.00;14.50;;;;;20.88;57.89;101083.47;4989794;28;45301;-48
2021/09/26 09:41:32;;;;;;;;;13.25;13.25;;;;;20.90;57.80;101078.91;5000854;28;45171;-46
2021/09/26 09:43:57;;;;;;;;;15.25;13.00;;;;;21.01;57.98;101089.91;5000334;28;46175;-47
2021/09/26 09:46:31;;;;;;;;;16.00;15.25;;;;;21.05;58.16;101086.09;5000436;28;46223;-46
2021/09/26 09:49:13;;;;;;;;;18.25;14.50;;;;;21.15;57.45;101085.66;5000826;28;45530;-47
2021/09/26 09:51:40;;;;;;;;;15.25;15.00;;;;;21.21;57.51;101093.34;4995849;28;45302;-47
2021/09/26 09:54:08;;;;;;;;;14.75;14.50;;;;;21.27;57.77;101082.31;5020145;28;45582;-49
2021/09/26 09:56:42;;;;;;;;;18.25;17.25;;;;;21.27;57.85;101072.47;5020461;28;46218;-48
2021/09/26 09:59:08;;;;;;;;;14.50;14.00;;;;;21.39;57.57;101081.63;5019884;28;45411;-45
2021/09/26 10:01:38;;;;;;;;;19.25;15.50;;;;;21.43;57.51;101068.97;5020456;28;45201;-47
2021/09/26 10:04:08;;;;;;;;;13.50;12.00;;;;;21.50;57.57;101075.72;5020147;28;45464;-46
2021/09/26 10:06:37;;;;;;;;;16.25;14.00;;;;;21.57;57.18;101081.59;5020145;28;45436;-44
2021/09/26 10:09:17;;;;;;;;;17.00;17.00;;;;;21.62;57.34;101084.03;5020117;28;45408;-45
2021/09/26 10:11:53;;;;;;;;;14.75;14.00;;;;;21.68;57.18;101081.88;5020124;28;45241;-45
2021/09/26 10:14:20;;;;;;;;;14.50;13.50;;;;;21.74;57.31;101081.53;5019824;28;45218;-48
2021/09/26 10:16:46;;;;;;;;;14.75;13.25;;;;;21.79;57.62;101081.28;5019880;28;46478;-49
2021/09/26 10:19:13;;;;;;;;;15.25;14.25;;;;;21.87;57.43;101070.16;5019994;28;45459;-48
2021/09/26 10:21:39;;;;;;;;;16.25;13.50;;;;;21.95;57.21;101075.94;5018693;28;45374;-46
2021/09/26 10:24:05;;;;;;;;;16.50;16.50;;;;;22.03;57.24;101081.69;5019855;28;46002;-48
2021/09/26 10:26:31;;;;;;;;;14.75;14.25;;;;;22.08;56.92;101076.94;5019667;28;46191;-48
2021/09/26 10:28:59;;;;;;;;;14.25;13.50;;;;;22.16;57.11;101072.97;5019483;28;45453;-46
2021/09/26 10:31:28;;;;;;;;;13.25;12.00;;;;;22.27;56.62;101089.28;5019928;28;45350;-42
2021/09/26 10:33:56;;;;;;;;;14.00;13.50;;;;;22.34;56.73;101077.25;5019788;28;45418;-45
2021/09/26 10:36:23;;;;;;;;;16.25;16.00;;;;;22.47;56.86;101076.56;5016749;28;46466;-46
2021/09/26 10:38:51;;;;;;;;;16.50;13.50;;;;;22.56;56.58;101078.69;5000046;28;45350;-48
2021/09/26 10:41:18;;;;;;;;;12.00;12.00;;;;;22.66;56.61;101077.19;4999975;28;45354;-46
2021/09/26 10:43:44;;;;;;;;;17.00;14.75;;;;;22.77;56.16;101076.56;4999653;28;45305;-48
2021/09/26 10:46:16;;;;;;;;;23.00;21.00;;;;;22.87;56.36;101077.72;4999522;28;47329;-45
2021/09/26 10:49:01;;;;;;;;;13.00;13.00;;;;;22.95;56.35;101071.88;4999888;28;45460;-47
2021/09/26 10:51:47;;;;;;;;;14.25;14.25;;;;;23.04;55.99;101081.19;4999881;28;45461;-45
2021/09/26 10:54:21;;;;;;;;;12.00;9.00;;;;;23.10;55.76;101082.63;4999583;28;45479;-48
2021/09/26 10:56:47;;;;;;;;;12.25;11.50;;;;;23.14;55.92;101079.66;4999508;28;47046;-46
2021/09/26 10:59:13;;;;;;;;;13.50;11.50;;;;;23.17;55.73;101073.31;4999328;28;45336;-43
2021/09/26 11:01:39;;;;;;;;;14.25;14.25;;;;;23.20;55.24;101073.94;4999689;28;45329;-42
2021/09/26 11:04:10;;;;;;;;;14.50;11.50;;;;;23.21;55.27;101075.66;4999570;28;45163;-45
2021/09/26 11:06:36;;;;;;;;;9.00;6.50;;;;;23.26;55.45;101063.78;4999952;28;45375;-43
2021/09/26 11:09:04;;;;;;;;;13.50;13.00;;;;;23.27;55.31;101069.06;4999415;28;45309;-48
2021/09/26 11:11:46;;;;;;;;;14.25;11.75;;;;;23.27;54.98;101063.72;5014827;28;45290;-46
2021/09/26 11:14:13;;;;;;;;;14.25;11.00;;;;;23.28;55.11;101057.41;4999975;28;45315;-44